Time;durP1;ratioP1;P1;durP2;ratioP2;P2;SDS_P1;SDS_P2;PMS_P1;PMS_P2;Temp;Humidity;BMP_temperature;BMP_pressure;BME280_temperature;BME280_humidity;BME280_pressure;Samples;Min_cycle;Max_cycle;Signal;HPM_P1;HPM_P2
2023/06/13 07:01:18;;;;;;;0.22;0.22;;;29.70;94.80;33.40;101291.00;;;;6191071;23;20182;-70
2023/06/13 07:03:50;;;;;;;1.55;1.10;;;30.00;94.60;33.60;101238.00;;;;6217181;23;20253;-70
2023/06/13 07:06:16;;;;;;;0.60;0.60;;;30.30;93.70;33.90;101285.00;;;;6190844;23;20193;-70
2023/06/13 07:08:42;;;;;;;2.80;1.98;;;29.90;93.60;34.60;101285.00;;;;6190644;23;20138;-68
2023/06/13 07:11:07;;;;;;;0.30;0.30;;;30.60;93.50;34.80;101279.00;;;;6217732;23;20146;-67
2023/06/13 07:13:33;;;;;;;0.10;0.10;;;30.90;93.10;34.70;101278.00;;;;6165875;23;20166;-67
2023/06/13 07:16:08;;;;;;;0.25;0.25;;;30.80;93.60;34.90;101281.00;;;;6217508;23;20146;-67
2023/06/13 07:19:00;;;;;;;0.85;0.82;;;31.30;92.80;32.20;101297.00;;;;6217139;23;20188;-70
2023/06/13 07:21:48;;;;;;;1.75;1.40;;;30.40;92.70;34.20;101288.00;;;;6190769;23;20189;-68
2023/06/13 07:24:14;;;;;;;0.28;0.28;;;30.60;93.10;36.10;101288.00;;;;6217386;23;20574;-68
2023/06/13 07:26:40;;;;;;;0.38;0.38;;;31.60;92.30;35.50;101252.00;;;;6190602;23;20142;-68
2023/06/13 07:29:06;;;;;;;0.20;0.20;;;32.00;91.70;32.70;101303.00;;;;6190582;23;20151;-70
2023/06/13 07:31:32;;;;;;;0.17;0.17;;;30.50;92.10;32.00;101306.00;;;;6190336;23;20147;-70
2023/06/13 07:33:58;;;;;;;0.28;0.28;;;29.30;92.60;31.70;101312.00;;;;6165620;23;20166;-69
2023/06/13 07:36:24;;;;;;;0.17;0.17;;;28.80;93.20;33.80;101301.00;;;;6190763;23;20441;-70
2023/06/13 07:38:51;;;;;;;0.75;0.75;;;29.50;93.20;34.40;101262.00;;;;6217180;23;20138;-69
2023/06/13 07:41:17;;;;;;;1.02;1.02;;;30.60;92.30;32.90;101299.00;;;;6190760;23;20149;-69
2023/06/13 07:43:43;;;;;;;0.25;0.25;;;30.20;92.60;33.40;101297.00;;;;6190652;23;20166;-70
2023/06/13 07:46:09;;;;;;;1.13;0.93;;;30.50;91.50;32.40;101298.00;;;;6217382;23;20151;-69
2023/06/13 07:48:35;;;;;;;1.88;1.50;;;29.80;92.00;31.10;101306.00;;;;6190333;23;20146;-69
2023/06/13 07:51:03;;;;;;;0.55;0.55;;;29.00;91.90;32.20;101299.00;;;;6216832;23;20690;-71
2023/06/13 07:53:32;;;;;;;1.67;1.50;;;29.00;92.50;31.50;101311.00;;;;6217345;23;20628;-71
2023/06/13 07:55:58;;;;;;;0.52;0.52;;;28.90;92.20;31.50;101300.00;;;;6217225;23;20143;-71
2023/06/13 07:58:24;;;;;;;0.77;0.77;;;28.40;92.50;33.00;101285.00;;;;6190755;23;20158;-71
2023/06/13 08:00:50;;;;;;;1.75;0.40;;;29.40;92.00;32.30;101289.00;;;;6217103;23;20245;-71
2023/06/13 08:03:16;;;;;;;0.60;0.60;;;29.60;91.70;34.90;101276.00;;;;6216638;23;20216;-69
2023/06/13 08:05:42;;;;;;;0.28;0.28;;;30.50;91.60;35.50;101252.00;;;;6190088;23;20159;-67
2023/06/13 08:08:07;;;;;;;2.72;1.95;;;31.40;91.10;32.90;101289.00;;;;6216386;23;20447;-71
2023/06/13 08:10:33;;;;;;;0.60;0.60;;;31.20;90.10;34.50;101279.00;;;;6217068;23;20146;-70
2023/06/13 08:13:00;;;;;;;1.20;1.20;;;30.70;90.50;34.90;101277.00;;;;6165655;23;20237;-70
2023/06/13 08:15:26;;;;;;;0.65;0.65;;;31.00;90.50;34.50;101279.00;;;;6190206;23;20158;-70
2023/06/13 08:17:54;;;;;;;1.40;0.98;;;31.10;90.60;31.60;101288.00;;;;6189714;23;20595;-71
2023/06/13 08:20:20;;;;;;;3.05;2.25;;;29.90;89.80;30.80;101289.00;;;;6189694;23;20158;-70
2023/06/13 08:22:46;;;;;;;4.00;1.05;;;29.10;90.30;33.50;101280.00;;;;6190508;23;20170;-72
2023/06/13 08:25:11;;;;;;;1.23;0.82;;;29.80;90.90;33.00;101256.00;;;;6189352;23;20476;-70
2023/06/13 08:27:38;;;;;;;1.33;1.23;;;30.10;90.50;34.00;101279.00;;;;6190100;23;20162;-71
2023/06/13 08:30:06;;;;;;;1.70;1.58;;;30.70;90.10;34.50;101278.00;;;;6216297;23;20588;-71
2023/06/13 08:32:32;;;;;;;2.30;1.70;;;31.20;89.90;32.80;101285.00;;;;6188525;23;20150;-71
2023/06/13 08:35:02;;;;;;;1.05;0.98;;;31.10;88.80;32.20;101302.00;;;;6190207;23;20146;-70
2023/06/13 08:37:31;;;;;;;0.75;0.75;;;29.90;90.30;33.60;101282.00;;;;6191107;23;20149;-75
2023/06/13 08:39:57;;;;;;;2.95;1.73;;;30.50;89.90;33.40;101271.00;;;;6190028;23;20154;-71
2023/06/13 08:42:24;;;;;;;0.65;0.65;;;30.30;89.40;33.80;101293.00;;;;6216748;23;20223;-71
2023/06/13 08:44:50;;;;;;;0.25;0.25;;;30.50;90.40;32.10;101300.00;;;;6189975;23;20155;-71
2023/06/13 08:47:18;;;;;;;0.95;0.63;;;29.80;90.60;33.60;101299.00;;;;6189589;23;20146;-71
2023/06/13 08:49:56;;;;;;;1.25;1.25;;;30.30;90.30;33.40;101250.00;;;;6190166;23;20150;-71
2023/06/13 08:52:24;;;;;;;2.17;1.98;;;30.70;88.70;30.00;101291.00;;;;6190317;23;20229;-71
2023/06/13 08:54:56;;;;;;;0.63;0.50;;;29.10;88.90;33.70;101287.00;;;;6189479;23;20138;-71
2023/06/13 08:57:25;;;;;;;1.45;1.17;;;29.80;89.50;32.00;101279.00;;;;6164882;23;20189;-71
2023/06/13 08:59:55;;;;;;;1.45;1.35;;;29.20;90.20;31.60;101285.00;;;;6165078;23;20166;-71
2023/06/13 09:02:26;;;;;;;0.75;0.68;;;29.40;89.30;32.50;101268.00;;;;6189147;23;20220;-71
2023/06/13 09:04:59;;;;;;;3.53;1.70;;;29.90;89.00;31.50;101275.00;;;;6189666;23;20477;-73
2023/06/13 09:07:26;;;;;;;1.33;0.73;;;29.20;89.40;33.70;101263.00;;;;6188958;23;20157;-73
2023/06/13 09:09:54;;;;;;;0.65;0.65;;;30.00;89.10;33.40;101279.00;;;;6164670;23;20174;-73
2023/06/13 09:12:20;;;;;;;0.32;0.32;;;30.50;89.70;34.90;101257.00;;;;6216362;23;20164;-73
2023/06/13 09:14:46;;;;;;;0.30;0.30;;;31.00;86.80;34.50;101273.00;;;;6189557;23;20154;-73
2023/06/13 09:17:12;;;;;;;0.38;0.38;;;31.50;86.70;36.20;101265.00;;;;6215462;23;20151;-73
2023/06/13 09:19:40;;;;;;;0.68;0.68;;;32.20;87.10;35.60;101260.00;;;;6189884;23;20165;-73
2023/06/13 09:22:06;;;;;;;1.63;1.08;;;32.30;86.60;31.40;101281.00;;;;6190009;23;20170;-72
2023/06/13 09:24:33;;;;;;;1.92;1.83;;;30.30;86.50;32.40;101276.00;;;;6189871;23;20143;-73
2023/06/13 09:27:01;;;;;;;0.10;0.10;;;30.50;85.80;32.20;101266.00;;;;6189439;23;20185;-73
2023/06/13 09:29:35;;;;;;;2.35;1.42;;;29.80;86.70;31.70;101278.00;;;;6189347;23;20476;-72
2023/06/13 09:32:03;;;;;;;1.05;1.00;;;29.20;86.70;31.50;101266.00;;;;6164663;23;20162;-72
2023/06/13 09:34:53;;;;;;;1.02;1.00;;;29.20;86.40;30.40;101281.00;;;;6189807;23;20142;-72
2023/06/13 09:37:20;;;;;;;1.48;1.38;;;29.20;86.10;30.20;101262.00;;;;6142157;23;20169;-72
2023/06/13 09:39:55;;;;;;;2.05;1.33;;;28.40;87.30;31.00;101273.00;;;;6189825;23;20647;-72
2023/06/13 09:42:23;;;;;;;2.00;1.42;;;28.70;86.50;33.20;101266.00;;;;6189682;23;20223;-72
2023/06/13 09:44:50;;;;;;;1.38;1.27;;;29.80;85.30;32.90;101273.00;;;;6188979;23;20208;-72
2023/06/13 09:47:25;;;;;;;0.73;0.73;;;30.00;83.80;33.30;101262.00;;;;6164486;23;20158;-73
2023/06/13 09:49:58;;;;;;;1.65;1.23;;;30.40;84.70;35.40;101251.00;;;;6189653;23;20142;-73
2023/06/13 09:52:26;;;;;;;1.08;1.00;;;31.40;84.70;33.60;101264.00;;;;6164507;23;20497;-72
2023/06/13 09:54:55;;;;;;;1.92;1.83;;;31.20;83.50;31.40;101217.00;;;;6215693;23;20641;-72
2023/06/13 09:57:25;;;;;;;1.98;1.83;;;29.50;83.40;32.50;101253.00;;;;6214873;23;20143;-73
2023/06/13 09:59:54;;;;;;;1.45;1.35;;;29.80;83.90;33.80;101247.00;;;;6215358;23;20188;-73
2023/06/13 10:02:20;;;;;;;0.50;0.50;;;30.30;84.70;32.50;101246.00;;;;6214359;23;20189;-73
2023/06/13 10:04:51;;;;;;;0.98;0.47;;;30.00;81.80;33.00;101243.00;;;;6188741;23;20158;-71
2023/06/13 10:07:17;;;;;;;0.50;0.50;;;30.20;81.70;35.40;101217.00;;;;6188767;23;20204;-70
2023/06/13 10:09:45;;;;;;;0.80;0.77;;;31.10;83.10;32.60;101254.00;;;;6189114;23;20546;-69
2023/06/13 10:12:19;;;;;;;1.10;1.08;;;30.80;80.00;32.60;101251.00;;;;6187472;23;20169;-69
2023/06/13 10:14:54;;;;;;;3.85;0.93;;;30.40;80.80;33.10;101254.00;;;;6188679;23;20453;-69
2023/06/13 10:17:21;;;;;;;0.30;0.30;;;30.50;80.00;35.50;101248.00;;;;6187352;23;20157;-69
2023/06/13 10:20:17;;;;;;;0.68;0.68;;;31.40;80.50;34.80;101246.00;;;;6215834;23;20149;-68
2023/06/13 10:33:34;;;;;;;1.50;1.40;;;31.70;76.20;33.50;101213.00;;;;5070090;28;20574;-68
2023/06/13 10:36:33;;;;;;;0.10;0.10;;;31.50;77.40;34.60;101242.00;;;;5050086;28;20648;-68
2023/06/13 10:39:34;;;;;;;0.77;0.77;;;32.10;78.10;33.60;101249.00;;;;5044286;28;20191;-68
2023/06/13 10:42:19;;;;;;;0.30;0.30;;;31.10;76.10;34.40;101239.00;;;;5029133;28;20182;-69
2023/06/13 10:45:40;;;;;;;0.30;0.30;;;31.50;76.10;34.10;101239.00;;;;5044606;28;20186;-68
2023/06/13 10:48:12;;;;;;;3.08;2.13;;;31.50;75.20;33.60;101243.00;;;;5043484;28;20204;-68
2023/06/13 10:50:43;;;;;;;0.38;0.38;;;31.90;75.40;36.00;101243.00;;;;5065930;28;20633;-68
2023/06/13 10:53:37;;;;;;;1.05;0.95;;;32.10;76.80;35.40;101233.00;;;;5048687;28;20297;-68
2023/06/13 10:56:08;;;;;;;0.63;0.63;;;32.20;76.30;37.40;101226.00;;;;5043123;28;20197;-66
2023/06/13 10:58:35;;;;;;;1.42;1.10;;;33.30;75.90;36.70;101228.00;;;;5046363;28;20186;-66
2023/06/13 11:01:55;;;;;;;1.20;1.02;;;33.60;76.00;34.40;101228.00;;;;5048518;28;20193;-66
2023/06/13 11:04:33;;;;;;;1.40;1.30;;;33.10;74.30;35.20;101234.00;;;;5040589;28;20206;-67
2023/06/13 11:07:28;;;;;;;0.43;0.43;;;32.80;75.50;36.00;101239.00;;;;5048698;28;20186;-66
2023/06/13 11:10:02;;;;;;;0.10;0.10;;;32.80;76.90;36.10;101230.00;;;;5064968;28;20186;-66
2023/06/13 11:12:30;;;;;;;0.75;0.75;;;32.80;75.20;37.30;101220.00;;;;5048073;28;20214;-66
2023/06/13 11:14:59;;;;;;;0.82;0.82;;;33.20;75.40;36.90;101228.00;;;;5046458;28;20237;-66
2023/06/13 11:17:26;;;;;;;0.80;0.80;;;33.50;75.00;36.40;101205.00;;;;5047169;28;20249;-66
2023/06/13 11:19:55;;;;;;;0.65;0.65;;;33.60;73.50;38.80;101210.00;;;;5048158;28;20587;-66
2023/06/13 11:22:24;;;;;;;0.47;0.47;;;34.70;73.90;35.90;101219.00;;;;5032372;28;20190;-65
2023/06/13 11:24:58;;;;;;;2.38;2.15;;;33.50;72.90;35.30;101230.00;;;;5048299;28;20277;-65
2023/06/13 11:27:24;;;;;;;0.20;0.20;;;33.90;72.30;36.00;101218.00;;;;5048211;28;20186;-65
2023/06/13 11:29:51;;;;;;;0.80;0.80;;;33.20;73.20;35.70;101222.00;;;;5049810;28;20232;-65
2023/06/13 11:32:18;;;;;;;0.17;0.17;;;33.10;72.30;36.00;101221.00;;;;5031318;28;20576;-65
2023/06/13 11:34:50;;;;;;;0.20;0.20;;;33.10;72.90;38.60;101221.00;;;;5047148;28;20186;-65
2023/06/13 11:37:45;;;;;;;0.90;0.90;;;34.30;74.00;35.90;101224.00;;;;5048114;28;20269;-68
2023/06/13 11:40:44;;;;;;;1.88;1.13;;;34.60;70.80;35.50;101180.00;;;;5029578;28;20198;-65
2023/06/13 11:43:15;;;;;;;3.17;1.77;;;33.20;72.00;35.30;101208.00;;;;5030341;28;20298;-65
2023/06/13 11:45:41;;;;;;;0.70;0.70;;;33.00;70.40;35.30;101183.00;;;;5034613;28;20191;-65
2023/06/13 11:48:11;;;;;;;0.10;0.10;;;32.80;71.10;35.80;101201.00;;;;5016552;28;20193;-65
2023/06/13 11:50:38;;;;;;;1.38;1.27;;;32.80;71.00;35.50;101213.00;;;;5034070;28;20233;-65
2023/06/13 11:53:08;;;;;;;0.52;0.47;;;32.40;70.90;36.80;101198.00;;;;5034450;28;20653;-65
2023/06/13 11:55:39;;;;;;;1.27;1.27;;;32.80;71.60;35.90;101212.00;;;;5035356;28;20555;-65
2023/06/13 11:58:05;;;;;;;1.88;1.77;;;32.70;72.40;35.20;101227.00;;;;5034208;28;20237;-65
2023/06/13 12:00:53;;;;;;;1.75;1.65;;;32.30;71.50;34.60;101228.00;;;;5032963;28;20598;-65
2023/06/13 12:03:22;;;;;;;2.50;2.30;;;31.90;71.70;31.40;101226.00;;;;5038947;28;20199;-67
2023/06/13 12:05:50;;;;;;;0.10;0.10;;;30.60;71.60;34.20;101212.00;;;;5033331;28;20249;-68
2023/06/13 12:08:17;;;;;;;0.73;0.73;;;30.50;73.50;35.20;101205.00;;;;5031048;28;20215;-68
2023/06/13 12:10:49;;;;;;;1.42;1.35;;;31.20;73.20;35.90;101166.00;;;;5049266;28;20281;-65
2023/06/13 12:13:18;;;;;;;1.15;1.02;;;31.90;72.40;35.10;101169.00;;;;5034741;28;20238;-66
2023/06/13 12:15:44;;;;;;;0.47;0.47;;;31.90;71.60;34.90;101208.00;;;;5026533;28;20179;-65
2023/06/13 12:18:10;;;;;;;1.70;1.60;;;31.50;72.00;34.70;101210.00;;;;5035111;28;20197;-68
2023/06/13 12:20:56;;;;;;;1.00;1.00;;;31.50;73.90;33.00;101223.00;;;;5035073;28;20615;-67
2023/06/13 12:23:23;;;;;;;0.70;0.70;;;30.40;75.30;34.60;101217.00;;;;5034975;28;20237;-68
2023/06/13 12:25:50;;;;;;;0.82;0.65;;;30.80;74.40;34.30;101222.00;;;;5033705;28;20206;-68
2023/06/13 12:28:18;;;;;;;1.27;1.05;;;30.80;73.90;34.50;101215.00;;;;5034136;28;20190;-68
2023/06/13 12:30:47;;;;;;;2.47;1.73;;;31.00;73.30;33.60;101216.00;;;;5030158;28;20270;-68
2023/06/13 12:33:33;;;;;;;0.20;0.20;;;30.60;74.30;35.00;101205.00;;;;5024631;28;20257;-68
2023/06/13 12:36:02;;;;;;;1.70;1.60;;;30.80;75.00;33.10;101225.00;;;;5021903;28;20580;-67
2023/06/13 12:38:32;;;;;;;0.77;0.77;;;30.20;74.80;33.80;101217.00;;;;5033670;28;20211;-68
2023/06/13 12:41:11;;;;;;;1.65;1.55;;;30.40;74.20;34.00;101210.00;;;;5016995;28;20261;-67
2023/06/13 12:43:42;;;;;;;0.68;0.68;;;30.40;73.50;33.30;101209.00;;;;5032076;28;20194;-67
2023/06/13 12:46:08;;;;;;;0.80;0.57;;;30.10;73.50;34.00;101186.00;;;;5033164;28;20182;-68
2023/06/13 12:48:56;;;;;;;1.88;1.33;;;30.20;74.00;32.70;101196.00;;;;5030474;28;20190;-67
2023/06/13 12:51:29;;;;;;;0.40;0.40;;;29.90;71.90;34.80;101196.00;;;;5029152;28;20198;-67
2023/06/13 12:54:15;;;;;;;1.55;1.10;;;30.20;73.50;33.50;101155.00;;;;5033240;28;20187;-68
2023/06/13 12:57:01;;;;;;;1.20;0.85;;;30.50;74.00;32.90;101191.00;;;;5021454;28;20185;-67
2023/06/13 12:59:47;;;;;;;0.10;0.10;;;29.70;73.30;33.60;101184.00;;;;5031124;28;20190;-68
2023/06/13 13:02:17;;;;;;;1.58;1.48;;;29.90;74.60;32.00;101135.00;;;;5017190;28;20222;-67
2023/06/13 13:04:44;;;;;;;0.10;0.10;;;29.50;73.60;33.70;101179.00;;;;5025573;28;20190;-68
2023/06/13 13:07:13;;;;;;;0.63;0.63;;;29.80;74.30;33.00;101175.00;;;;5032711;28;20290;-67
2023/06/13 13:09:44;;;;;;;2.78;2.13;;;29.70;74.70;32.40;101185.00;;;;5016207;28;20552;-67
2023/06/13 13:12:13;;;;;;;9.23;1.27;;;29.80;74.80;33.00;101172.00;;;;5033196;28;20214;-67
2023/06/13 13:14:39;;;;;;;0.20;0.20;;;29.90;74.00;33.70;101171.00;;;;5033124;28;20676;-67
2023/06/13 13:17:08;;;;;;;0.70;0.50;;;30.10;73.50;34.20;101167.00;;;;5032914;28;20586;-67
2023/06/13 13:19:34;;;;;;;0.65;0.65;;;30.30;72.80;35.00;101148.00;;;;5031901;28;20233;-67
2023/06/13 13:22:01;;;;;;;0.15;0.15;;;30.80;72.10;35.90;101164.00;;;;5031188;28;20203;-68
2023/06/13 13:24:27;;;;;;;0.20;0.20;;;31.30;73.10;32.90;101192.00;;;;5016267;28;20190;-67
2023/06/13 13:26:55;;;;;;;0.20;0.20;;;30.60;72.20;32.30;101174.00;;;;5034208;28;20308;-67
2023/06/13 13:29:21;;;;;;;2.03;1.48;;;29.70;74.20;31.70;101190.00;;;;5032755;28;20206;-67
2023/06/13 13:31:55;;;;;;;1.13;1.10;;;29.40;73.70;31.70;101173.00;;;;5033320;28;20700;-67
2023/06/13 13:34:22;;;;;;;1.23;1.23;;;29.30;74.50;33.20;101193.00;;;;5034013;28;20186;-67
2023/06/13 13:36:48;;;;;;;1.65;1.55;;;29.70;74.80;33.50;101185.00;;;;5032552;28;20540;-68
2023/06/13 13:39:16;;;;;;;1.02;0.73;;;29.90;73.00;33.90;101174.00;;;;5032561;28;20187;-67
2023/06/13 13:41:42;;;;;;;2.72;1.33;;;29.90;74.20;32.60;101172.00;;;;5032576;28;20222;-67
2023/06/13 13:44:11;;;;;;;0.60;0.60;;;29.90;72.90;33.00;101168.00;;;;5032322;28;20317;-67
2023/06/13 13:46:39;;;;;;;0.30;0.30;;;29.80;73.70;33.40;101179.00;;;;5032298;28;20179;-67
2023/06/13 13:49:05;;;;;;;0.10;0.10;;;29.90;73.50;33.60;101169.00;;;;5031351;28;20182;-67
2023/06/13 13:51:32;;;;;;;0.85;0.85;;;29.80;73.00;34.80;101159.00;;;;5032557;28;20206;-67
2023/06/13 13:54:03;;;;;;;1.05;1.05;;;30.40;74.90;32.80;101168.00;;;;5014180;28;20547;-67
2023/06/13 13:56:29;;;;;;;0.20;0.20;;;30.20;72.10;35.10;101153.00;;;;5031159;28;20641;-68
2023/06/13 13:59:02;;;;;;;1.38;1.27;;;30.60;72.40;32.10;101166.00;;;;5031507;28;20198;-67
2023/06/13 14:01:28;;;;;;;0.20;0.20;;;30.20;71.90;32.70;101167.00;;;;5021209;28;20187;-67
2023/06/13 14:04:18;;;;;;;0.40;0.40;;;29.60;72.60;33.40;101160.00;;;;5033139;28;20703;-67
2023/06/13 14:06:55;;;;;;;3.38;2.17;;;29.80;73.30;33.20;101169.00;;;;5060703;28;20532;-67
2023/06/13 14:09:21;;;;;;;1.40;1.30;;;30.00;73.00;32.20;101166.00;;;;5032133;28;20182;-67
2023/06/13 14:11:46;;;;;;;1.58;1.48;;;29.60;71.10;33.60;101167.00;;;;5033045;28;20707;-68
2023/06/13 14:14:12;;;;;;;1.30;0.82;;;29.90;71.50;32.00;101174.00;;;;5031735;28;20193;-67
2023/06/13 14:16:41;;;;;;;0.95;0.95;;;29.50;70.10;32.30;101157.00;;;;5032708;28;20630;-67
2023/06/13 14:19:07;;;;;;;0.90;0.85;;;29.50;69.60;32.50;101153.00;;;;5033437;28;20187;-67
2023/06/13 14:21:39;;;;;;;0.40;0.40;;;29.40;70.10;33.80;101153.00;;;;5030973;28;20653;-68
2023/06/13 14:24:08;;;;;;;0.30;0.30;;;29.90;71.80;34.40;101140.00;;;;5032450;28;20178;-68
2023/06/13 14:26:34;;;;;;;1.52;1.42;;;30.20;70.50;33.00;101147.00;;;;5031958;28;20293;-68
2023/06/13 14:29:00;;;;;;;1.40;1.30;;;30.30;70.90;32.60;101161.00;;;;5032789;28;20677;-67
2023/06/13 14:31:26;;;;;;;1.25;1.20;;;29.90;70.60;32.80;101155.00;;;;5031787;28;20592;-67
2023/06/13 14:33:52;;;;;;;7.72;4.13;;;29.50;71.50;31.80;101126.00;;;;5031535;28;20179;-68
2023/06/13 14:36:21;;;;;;;0.52;0.52;;;29.50;72.70;32.10;101147.00;;;;5032922;28;20214;-75
2023/06/13 14:38:55;;;;;;;2.20;1.77;;;29.40;71.90;32.40;101144.00;;;;5014421;28;20214;-74
2023/06/13 14:41:22;;;;;;;2.25;1.90;;;29.30;71.20;32.00;101144.00;;;;5032925;28;20297;-71
2023/06/13 14:44:08;;;;;;;0.30;0.30;;;29.30;70.80;33.10;101138.00;;;;5031544;28;20535;-68
2023/06/13 14:46:34;;;;;;;1.50;1.40;;;29.40;71.70;32.90;101138.00;;;;5031497;28;20680;-69
2023/06/13 14:49:00;;;;;;;0.50;0.50;;;29.60;73.20;33.60;101135.00;;;;5021525;28;20269;-71
2023/06/13 14:51:30;;;;;;;0.55;0.55;;;29.70;72.30;32.30;101122.00;;;;5047306;28;20635;-73
2023/06/13 14:54:05;;;;;;;0.77;0.77;;;29.40;71.60;32.00;101094.00;;;;5032865;28;20641;-74
2023/06/13 14:56:31;;;;;;;0.63;0.63;;;29.20;72.70;33.70;101142.00;;;;5031160;28;20667;-72
2023/06/13 14:59:00;;;;;;;0.30;0.30;;;29.60;73.10;33.60;101131.00;;;;5032649;28;20183;-75
2023/06/13 15:01:26;;;;;;;1.23;1.13;;;29.90;72.10;32.60;101016.00;;;;5029343;28;20643;-74
2023/06/13 15:03:52;;;;;;;0.30;0.30;;;29.80;71.10;32.60;101141.00;;;;5032557;28;20193;-68
2023/06/13 15:06:18;;;;;;;6.07;2.80;;;29.60;71.60;31.90;101151.00;;;;5027952;28;20194;-68
2023/06/13 15:08:49;;;;;;;1.23;1.17;;;29.30;70.50;32.40;101139.00;;;;5046900;28;20201;-69
2023/06/13 15:11:21;;;;;;;0.73;0.73;;;29.20;71.10;33.40;101136.00;;;;5028861;28;20548;-68
2023/06/13 15:13:55;;;;;;;0.10;0.10;;;29.60;70.30;33.60;101134.00;;;;5037201;28;20192;-69
2023/06/13 15:16:32;;;;;;;0.57;0.57;;;29.50;70.30;33.40;101133.00;;;;5038321;28;20202;-69
2023/06/13 15:19:07;;;;;;;1.30;1.13;;;29.60;71.60;33.30;101125.00;;;;5038927;28;20292;-68
2023/06/13 15:21:33;;;;;;;1.05;1.05;;;29.80;70.20;33.70;101122.00;;;;5044650;28;20186;-70
2023/06/13 15:24:07;;;;;;;7.85;2.30;;;29.70;71.00;33.40;101125.00;;;;5042148;28;20185;-70
2023/06/13 15:26:47;;;;;;;1.55;1.45;;;29.90;70.20;33.00;101087.00;;;;5044785;28;20209;-69
2023/06/13 15:29:13;;;;;;;2.10;1.50;;;29.60;70.90;33.00;101132.00;;;;5043724;28;20190;-69
2023/06/13 15:31:39;;;;;;;3.05;1.60;;;29.50;70.50;31.60;101091.00;;;;5038858;28;20253;-69
2023/06/13 15:34:08;;;;;;;0.20;0.20;;;29.30;70.60;32.60;101118.00;;;;5044640;28;20269;-69
2023/06/13 15:36:34;;;;;;;0.60;0.60;;;29.10;71.10;32.00;101136.00;;;;5043970;28;20179;-69
2023/06/13 15:39:00;;;;;;;1.42;1.38;;;29.00;70.80;31.00;101136.00;;;;5037590;28;20182;-69
2023/06/13 15:41:38;;;;;;;0.90;0.90;;;28.70;70.90;31.80;101122.00;;;;5042727;28;20213;-69
2023/06/13 15:44:07;;;;;;;0.40;0.40;;;28.50;71.50;32.30;101115.00;;;;5045396;28;20198;-70
2023/06/13 15:46:36;;;;;;;0.17;0.17;;;28.80;72.40;32.80;101127.00;;;;5036233;28;20557;-70
2023/06/13 15:49:08;;;;;;;0.20;0.20;;;29.10;72.70;33.20;101128.00;;;;5042567;28;20660;-70
2023/06/13 15:51:37;;;;;;;0.43;0.43;;;29.40;72.00;32.70;101083.00;;;;5037530;28;20205;-69
2023/06/13 15:54:05;;;;;;;2.08;1.33;;;29.40;71.90;31.90;101131.00;;;;5038565;28;20190;-70
2023/06/13 15:56:31;;;;;;;1.50;0.95;;;29.10;70.20;32.50;101130.00;;;;5034448;28;20209;-69
2023/06/13 15:58:57;;;;;;;0.88;0.77;;;29.10;70.40;32.60;101134.00;;;;5034067;28;20600;-69
2023/06/13 16:01:23;;;;;;;0.75;0.75;;;29.10;70.40;32.80;101123.00;;;;5033592;28;20209;-69
2023/06/13 16:03:49;;;;;;;0.65;0.65;;;29.10;69.40;32.60;101135.00;;;;5033984;28;20258;-69
2023/06/13 16:06:14;;;;;;;0.95;0.95;;;29.00;70.10;31.90;101132.00;;;;5033638;28;20275;-69
2023/06/13 16:08:42;;;;;;;0.15;0.15;;;28.90;69.20;32.20;101137.00;;;;5014236;28;20672;-69
2023/06/13 16:11:10;;;;;;;0.57;0.57;;;28.80;70.30;32.80;101091.00;;;;5064454;28;20179;-69
2023/06/13 16:13:36;;;;;;;0.68;0.68;;;29.00;69.50;32.60;101129.00;;;;5014476;28;20183;-69
2023/06/13 16:16:04;;;;;;;0.10;0.10;;;29.10;69.10;32.60;101129.00;;;;5034021;28;20194;-69
2023/06/13 16:18:36;;;;;;;1.73;1.05;;;29.20;69.50;32.70;101122.00;;;;5017861;28;20274;-69
2023/06/13 16:21:02;;;;;;;0.70;0.70;;;29.10;69.70;32.30;101120.00;;;;5016289;28;20548;-69
2023/06/13 16:23:29;;;;;;;0.52;0.30;;;29.00;69.70;32.40;101123.00;;;;5033866;28;20187;-68
2023/06/13 16:25:55;;;;;;;0.17;0.17;;;28.90;71.00;32.10;101122.00;;;;5034814;28;20186;-69
2023/06/13 16:28:21;;;;;;;1.15;0.90;;;28.90;70.90;31.50;101126.00;;;;5017655;28;20191;-68
2023/06/13 16:30:47;;;;;;;0.20;0.20;;;28.80;71.70;33.10;101118.00;;;;5034542;28;20193;-69
2023/06/13 16:33:16;;;;;;;2.72;1.23;;;29.10;70.40;32.50;101107.00;;;;5033882;28;20218;-68
2023/06/13 16:35:42;;;;;;;1.02;0.30;;;29.10;69.20;31.60;101118.00;;;;5034549;28;20194;-69
2023/06/13 16:38:08;;;;;;;2.70;2.17;;;28.90;69.70;31.20;101077.00;;;;5035138;28;20183;-68
2023/06/13 16:40:34;;;;;;;2.33;2.22;;;28.80;69.00;32.10;101125.00;;;;5034818;28;20274;-68
2023/06/13 16:43:00;;;;;;;2.42;2.22;;;28.90;70.20;31.30;101126.00;;;;5033804;28;20222;-68
2023/06/13 16:45:27;;;;;;;2.03;1.85;;;28.70;69.50;31.00;101113.00;;;;5033753;28;20313;-68
2023/06/13 16:48:06;;;;;;;0.60;0.60;;;28.50;69.60;30.60;101126.00;;;;5037804;28;20201;-68
2023/06/13 16:50:51;;;;;;;1.35;1.30;;;28.30;69.10;31.40;101127.00;;;;5019565;28;20183;-68
2023/06/13 16:53:35;;;;;;;1.60;1.45;;;28.20;70.10;31.40;101092.00;;;;5043577;28;20205;-68
2023/06/13 16:56:10;;;;;;;0.43;0.43;;;28.50;69.10;31.00;101137.00;;;;5037239;28;20543;-69
2023/06/13 16:58:58;;;;;;;0.70;0.70;;;28.20;69.10;31.80;101138.00;;;;5047353;28;20187;-68
2023/06/13 17:01:49;;;;;;;0.55;0.55;;;28.40;70.60;31.50;101135.00;;;;5030084;28;20552;-68
2023/06/13 17:04:24;;;;;;;1.45;1.35;;;28.50;70.40;31.10;101130.00;;;;5033130;28;20285;-69
2023/06/13 17:06:54;;;;;;;1.65;1.30;;;28.30;71.60;31.50;101132.00;;;;5032616;28;20183;-68
2023/06/13 17:10:04;;;;;;;0.85;0.85;;;28.30;72.60;30.90;101136.00;;;;5034034;28;20649;-68
2023/06/13 17:12:42;;;;;;;3.60;2.55;;;28.20;71.80;31.50;101129.00;;;;5029654;28;20218;-68
2023/06/13 17:15:08;;;;;;;0.17;0.17;;;28.10;71.70;31.60;101086.00;;;;5016580;28;20187;-68
2023/06/13 17:18:02;;;;;;;0.98;0.85;;;28.10;71.90;31.70;101129.00;;;;5032274;28;20732;-68
2023/06/13 17:20:31;;;;;;;1.67;1.05;;;28.40;71.40;31.20;101147.00;;;;5028037;28;20198;-68
2023/06/13 17:22:57;;;;;;;0.82;0.82;;;28.30;71.20;30.90;101138.00;;;;5033197;28;20198;-68
2023/06/13 17:25:23;;;;;;;2.90;2.70;;;28.20;71.20;31.80;101129.00;;;;5032676;28;20217;-68
2023/06/13 17:28:00;;;;;;;1.92;1.83;;;28.30;71.50;30.40;101099.00;;;;5031695;28;20233;-68
2023/06/13 17:30:32;;;;;;;0.63;0.63;;;28.10;70.50;30.90;101148.00;;;;5032819;28;20651;-68
2023/06/13 17:33:18;;;;;;;6.55;2.08;;;27.90;71.10;30.20;101149.00;;;;5033505;28;20293;-68
2023/06/13 17:35:43;;;;;;;3.85;2.88;;;27.80;71.00;30.70;101144.00;;;;5031592;28;20191;-68
2023/06/13 17:38:27;;;;;;;3.47;2.45;;;27.90;71.30;30.90;101152.00;;;;5033540;28;20278;-69
2023/06/13 17:41:22;;;;;;;1.25;0.85;;;27.90;71.00;31.70;101145.00;;;;5033543;28;20297;-69
2023/06/13 17:44:33;;;;;;;0.20;0.20;;;28.10;70.50;30.50;101155.00;;;;5020836;28;20647;-70
2023/06/13 17:46:59;;;;;;;2.97;1.90;;;27.90;71.20;29.90;101138.00;;;;5021346;28;20194;-70
2023/06/13 17:50:12;;;;;;;1.67;1.17;;;27.70;69.80;30.50;101159.00;;;;5036073;28;20197;-68
2023/06/13 17:53:03;;;;;;;2.00;1.77;;;27.60;71.00;31.10;101148.00;;;;5022309;28;20199;-70
2023/06/13 17:56:01;;;;;;;0.98;0.98;;;27.80;72.30;31.00;101152.00;;;;5040800;28;20194;-71
2023/06/13 17:58:50;;;;;;;0.65;0.52;;;27.90;72.00;31.40;101168.00;;;;5033621;28;20256;-70
2023/06/13 18:02:02;;;;;;;0.60;0.47;;;27.90;72.50;31.20;101160.00;;;;5022245;28;20203;-70
2023/06/13 18:04:57;;;;;;;0.75;0.70;;;27.70;71.40;31.50;101154.00;;;;5039359;28;20189;-71
2023/06/13 18:07:56;;;;;;;1.83;1.55;;;27.90;70.40;30.20;101163.00;;;;5047962;28;20252;-71
2023/06/13 18:10:48;;;;;;;0.75;0.75;;;27.70;70.10;30.00;101128.00;;;;5039800;28;20182;-70
2023/06/13 18:13:57;;;;;;;0.55;0.55;;;27.50;70.10;30.80;101165.00;;;;5040845;28;20210;-71
2023/06/13 18:17:06;;;;;;;0.65;0.57;;;27.40;71.00;30.60;101168.00;;;;5021966;28;20194;-71
2023/06/13 18:20:10;;;;;;;1.95;1.85;;;27.50;71.10;30.10;101168.00;;;;5041415;28;20201;-70
2023/06/13 18:23:12;;;;;;;0.40;0.40;;;27.40;69.50;31.20;101157.00;;;;5034842;28;20209;-71